sensor_id;sensor_type;location;lat;lon;timestamp;pressure;altitude;pressure_sealevel;temperature;humidity
17254;BME280;32542;52.832;13.816;2023-05-25T00:00:51;102222.28;;;21.96;44.62
17254;BME280;32542;52.832;13.816;2023-05-25T00:04:01;102224.91;;;21.97;44.54
17254;BME280;32542;52.832;13.816;2023-05-25T00:07:04;102226.72;;;21.97;44.75
17254;BME280;32542;52.832;13.816;2023-05-25T00:10:08;102231.16;;;21.96;44.74
17254;BME280;32542;52.832;13.816;2023-05-25T00:13:11;102232.91;;;21.97;44.77
17254;BME280;32542;52.832;13.816;2023-05-25T00:16:15;102237.38;;;21.97;44.65
17254;BME280;32542;52.832;13.816;2023-05-25T00:19:18;102231.16;;;21.96;44.75
17254;BME280;32542;52.832;13.816;2023-05-25T00:22:21;102232.06;;;21.97;44.66
17254;BME280;32542;52.832;13.816;2023-05-25T00:25:24;102225.84;;;21.96;44.72
17254;BME280;32542;52.832;13.816;2023-05-25T00:28:27;102225.84;;;21.96;44.78
17254;BME280;32542;52.832;13.816;2023-05-25T00:31:31;102222.28;;;21.96;44.72
17254;BME280;32542;52.832;13.816;2023-05-25T00:34:36;102219.63;;;21.96;44.83
17254;BME280;32542;52.832;13.816;2023-05-25T00:37:39;102214.28;;;21.96;44.75
17254;BME280;32542;52.832;13.816;2023-05-25T00:40:42;102221.41;;;21.95;44.74
17254;BME280;32542;52.832;13.816;2023-05-25T00:43:46;102213.41;;;21.95;44.82
17254;BME280;32542;52.832;13.816;2023-05-25T00:46:51;102215.22;;;21.95;44.83
17254;BME280;32542;52.832;13.816;2023-05-25T00:49:54;102211.63;;;21.96;44.74
17254;BME280;32542;52.832;13.816;2023-05-25T00:52:57;102208.06;;;21.95;44.84
17254;BME280;32542;52.832;13.816;2023-05-25T00:56:04;102213.41;;;21.95;44.76
17254;BME280;32542;52.832;13.816;2023-05-25T00:59:12;102219.63;;;21.96;44.75
17254;BME280;32542;52.832;13.816;2023-05-25T01:02:18;102213.41;;;21.95;44.80
17254;BME280;32542;52.832;13.816;2023-05-25T01:05:24;102218.72;;;21.95;44.84
17254;BME280;32542;52.832;13.816;2023-05-25T01:08:32;102217.00;;;21.94;44.78
17254;BME280;32542;52.832;13.816;2023-05-25T01:11:39;102217.88;;;21.95;44.82
17254;BME280;32542;52.832;13.816;2023-05-25T01:14:44;102212.56;;;21.95;44.88
17254;BME280;32542;52.832;13.816;2023-05-25T01:17:50;102221.47;;;21.94;44.87
17254;BME280;32542;52.832;13.816;2023-05-25T01:21:00;102217.00;;;21.94;44.85
17254;BME280;32542;52.832;13.816;2023-05-25T01:24:16;102221.47;;;21.94;44.79
17254;BME280;32542;52.832;13.816;2023-05-25T01:27:25;102222.34;;;21.94;44.85
17254;BME280;32542;52.832;13.816;2023-05-25T01:30:33;102219.66;;;21.94;44.82
17254;BME280;32542;52.832;13.816;2023-05-25T01:33:38;102214.34;;;21.94;44.89
17254;BME280;32542;52.832;13.816;2023-05-25T01:36:43;102220.56;;;21.93;44.80
17254;BME280;32542;52.832;13.816;2023-05-25T01:39:45;102223.25;;;21.93;44.88
17254;BME280;32542;52.832;13.816;2023-05-25T01:42:48;102220.56;;;21.93;44.87
17254;BME280;32542;52.832;13.816;2023-05-25T01:45:54;102220.56;;;21.93;44.87
17254;BME280;32542;52.832;13.816;2023-05-25T01:49:04;102214.38;;;21.93;44.87
17254;BME280;32542;52.832;13.816;2023-05-25T01:52:17;102220.56;;;21.93;44.89
17254;BME280;32542;52.832;13.816;2023-05-25T01:55:24;102224.19;;;21.92;44.86
17254;BME280;32542;52.832;13.816;2023-05-25T01:58:33;102223.25;;;21.93;44.82
17254;BME280;32542;52.832;13.816;2023-05-25T02:01:38;102218.84;;;21.92;44.79
17254;BME280;32542;52.832;13.816;2023-05-25T02:04:43;102217.97;;;21.92;44.77
17254;BME280;32542;52.832;13.816;2023-05-25T02:07:47;102218.84;;;21.92;44.87
17254;BME280;32542;52.832;13.816;2023-05-25T02:10:51;102224.19;;;21.92;44.95
17254;BME280;32542;52.832;13.816;2023-05-25T02:13:54;102218.84;;;21.92;44.89
17254;BME280;32542;52.832;13.816;2023-05-25T02:16:57;102224.19;;;21.92;44.87
17254;BME280;32542;52.832;13.816;2023-05-25T02:20:03;102217.09;;;21.91;44.87
17254;BME280;32542;52.832;13.816;2023-05-25T02:23:08;102229.50;;;21.92;44.90
17254;BME280;32542;52.832;13.816;2023-05-25T02:26:12;102233.97;;;21.92;44.85
17254;BME280;32542;52.832;13.816;2023-05-25T02:29:15;102232.22;;;21.91;44.88
17254;BME280;32542;52.832;13.816;2023-05-25T02:32:18;102235.75;;;21.91;44.96
17254;BME280;32542;52.832;13.816;2023-05-25T02:35:21;102238.41;;;21.91;44.86
17254;BME280;32542;52.832;13.816;2023-05-25T02:38:26;102236.69;;;21.90;44.81
17254;BME280;32542;52.832;13.816;2023-05-25T02:41:29;102237.56;;;21.91;44.92
17254;BME280;32542;52.832;13.816;2023-05-25T02:44:32;102239.34;;;21.90;44.91
17254;BME280;32542;52.832;13.816;2023-05-25T02:47:35;102233.09;;;21.91;44.86
17254;BME280;32542;52.832;13.816;2023-05-25T02:50:38;102233.97;;;21.92;44.87
17254;BME280;32542;52.832;13.816;2023-05-25T02:53:46;102226.03;;;21.90;44.95
17254;BME280;32542;52.832;13.816;2023-05-25T02:56:49;102237.56;;;21.91;44.92
17254;BME280;32542;52.832;13.816;2023-05-25T02:59:53;102237.59;;;21.89;44.96
17254;BME280;32542;52.832;13.816;2023-05-25T03:02:55;102238.41;;;21.91;44.93
17254;BME280;32542;52.832;13.816;2023-05-25T03:05:59;102241.13;;;21.90;44.93
17254;BME280;32542;52.832;13.816;2023-05-25T03:09:03;102240.25;;;21.89;44.85
17254;BME280;32542;52.832;13.816;2023-05-25T03:12:07;102231.34;;;21.90;44.94
17254;BME280;32542;52.832;13.816;2023-05-25T03:15:10;102234.91;;;21.89;44.84
17254;BME280;32542;52.832;13.816;2023-05-25T03:18:14;102234.03;;;21.89;44.84
17254;BME280;32542;52.832;13.816;2023-05-25T03:21:17;102240.25;;;21.89;44.93
17254;BME280;32542;52.832;13.816;2023-05-25T03:24:22;102251.88;;;21.88;44.85
17254;BME280;32542;52.832;13.816;2023-05-25T03:27:25;102240.25;;;21.89;44.91
17254;BME280;32542;52.832;13.816;2023-05-25T03:30:28;102244.72;;;21.89;44.94
17254;BME280;32542;52.832;13.816;2023-05-25T03:33:32;102250.03;;;21.89;44.95
17254;BME280;32542;52.832;13.816;2023-05-25T03:36:35;102247.38;;;21.89;44.88
17254;BME280;32542;52.832;13.816;2023-05-25T03:39:41;102243.84;;;21.88;44.88
17254;BME280;32542;52.832;13.816;2023-05-25T03:42:44;102246.53;;;21.88;44.92
17254;BME280;32542;52.832;13.816;2023-05-25T03:45:47;102256.25;;;21.89;44.96
17254;BME280;32542;52.832;13.816;2023-05-25T03:48:50;102254.53;;;21.88;44.92
17254;BME280;32542;52.832;13.816;2023-05-25T03:51:53;102259.88;;;21.88;45.02
17254;BME280;32542;52.832;13.816;2023-05-25T03:54:58;102263.44;;;21.87;44.88
17254;BME280;32542;52.832;13.816;2023-05-25T03:58:02;102263.44;;;21.87;45.06
17254;BME280;32542;52.832;13.816;2023-05-25T04:01:05;102259.88;;;21.88;45.07
17254;BME280;32542;52.832;13.816;2023-05-25T04:04:10;102266.09;;;21.87;45.08
17254;BME280;32542;52.832;13.816;2023-05-25T04:07:13;102274.09;;;21.87;44.97
17254;BME280;32542;52.832;13.816;2023-05-25T04:10:17;102272.31;;;21.88;45.01
17254;BME280;32542;52.832;13.816;2023-05-25T04:13:20;102271.44;;;21.87;45.02
17254;BME280;32542;52.832;13.816;2023-05-25T04:16:23;102275.88;;;21.88;45.08
17254;BME280;32542;52.832;13.816;2023-05-25T04:19:26;102288.25;;;21.89;45.00
17254;BME280;32542;52.832;13.816;2023-05-25T04:22:29;102287.44;;;21.87;45.02
17254;BME280;32542;52.832;13.816;2023-05-25T04:25:36;102295.44;;;21.87;45.14
17254;BME280;32542;52.832;13.816;2023-05-25T04:28:39;102290.09;;;21.87;45.06
17254;BME280;32542;52.832;13.816;2023-05-25T04:31:55;102281.28;;;21.85;45.00
17254;BME280;32542;52.832;13.816;2023-05-25T04:35:01;102294.56;;;21.87;45.00
17254;BME280;32542;52.832;13.816;2023-05-25T04:38:13;102293.72;;;21.86;45.06
17254;BME280;32542;52.832;13.816;2023-05-25T04:41:19;102290.09;;;21.87;44.98
17254;BME280;32542;52.832;13.816;2023-05-25T04:44:27;102286.56;;;21.87;44.90
17254;BME280;32542;52.832;13.816;2023-05-25T04:47:31;102295.44;;;21.87;45.01
17254;BME280;32542;52.832;13.816;2023-05-25T04:50:35;102284.78;;;21.87;45.17
17254;BME280;32542;52.832;13.816;2023-05-25T04:53:42;102281.22;;;21.87;45.12
17254;BME280;32542;52.832;13.816;2023-05-25T04:56:46;102281.19;;;21.88;45.09
17254;BME280;32542;52.832;13.816;2023-05-25T04:59:49;102289.22;;;21.87;45.07
17254;BME280;32542;52.832;13.816;2023-05-25T05:02:53;102284.78;;;21.87;45.25
17254;BME280;32542;52.832;13.816;2023-05-25T05:05:57;102274.97;;;21.88;45.08
17254;BME280;32542;52.832;13.816;2023-05-25T05:09:03;102278.53;;;21.88;45.06
17254;BME280;32542;52.832;13.816;2023-05-25T05:12:08;102282.97;;;21.88;45.23
17254;BME280;32542;52.832;13.816;2023-05-25T05:15:17;102274.97;;;21.88;45.05
17254;BME280;32542;52.832;13.816;2023-05-25T05:18:23;102283.88;;;21.88;45.18
17254;BME280;32542;52.832;13.816;2023-05-25T05:21:26;102286.56;;;21.87;45.24
17254;BME280;32542;52.832;13.816;2023-05-25T05:24:29;102294.56;;;21.87;45.28
17254;BME280;32542;52.832;13.816;2023-05-25T05:27:34;102295.44;;;21.87;45.25
17254;BME280;32542;52.832;13.816;2023-05-25T05:30:44;102299.88;;;21.87;45.22
17254;BME280;32542;52.832;13.816;2023-05-25T05:33:48;102300.78;;;21.87;45.24
17254;BME280;32542;52.832;13.816;2023-05-25T05:36:51;102306.09;;;21.87;45.28
17254;BME280;32542;52.832;13.816;2023-05-25T05:40:00;102302.53;;;21.88;45.23
17254;BME280;32542;52.832;13.816;2023-05-25T05:43:04;102298.09;;;21.87;45.16
17254;BME280;32542;52.832;13.816;2023-05-25T05:46:08;102294.56;;;21.87;45.27
17254;BME280;32542;52.832;13.816;2023-05-25T05:49:11;102290.09;;;21.87;45.31
17254;BME280;32542;52.832;13.816;2023-05-25T05:52:14;102302.53;;;21.88;45.24
17254;BME280;32542;52.832;13.816;2023-05-25T05:55:17;102300.78;;;21.87;45.19
17254;BME280;32542;52.832;13.816;2023-05-25T05:58:24;102304.38;;;21.86;45.19
17254;BME280;32542;52.832;13.816;2023-05-25T06:01:28;102304.38;;;21.86;45.31
17254;BME280;32542;52.832;13.816;2023-05-25T06:04:31;102310.56;;;21.87;45.22
17254;BME280;32542;52.832;13.816;2023-05-25T06:07:34;102310.56;;;21.87;45.34
17254;BME280;32542;52.832;13.816;2023-05-25T06:10:38;102308.78;;;21.87;45.31
17254;BME280;32542;52.832;13.816;2023-05-25T06:13:44;102307.88;;;21.87;45.29
17254;BME280;32542;52.832;13.816;2023-05-25T06:16:48;102316.78;;;21.87;45.35
17254;BME280;32542;52.832;13.816;2023-05-25T06:19:51;102310.56;;;21.87;45.28
17254;BME280;32542;52.832;13.816;2023-05-25T06:22:54;102314.09;;;21.87;45.25
17254;BME280;32542;52.832;13.816;2023-05-25T06:26:02;102318.53;;;21.88;45.28
17254;BME280;32542;52.832;13.816;2023-05-25T06:29:07;102312.31;;;21.88;45.21
17254;BME280;32542;52.832;13.816;2023-05-25T06:32:10;102316.78;;;21.87;45.29
17254;BME280;32542;52.832;13.816;2023-05-25T06:35:14;102315.91;;;21.87;45.30
17254;BME280;32542;52.832;13.816;2023-05-25T06:38:23;102318.53;;;21.88;45.37
17254;BME280;32542;52.832;13.816;2023-05-25T06:41:26;102318.53;;;21.88;45.16
17254;BME280;32542;52.832;13.816;2023-05-25T06:44:31;102305.22;;;21.88;45.22
17254;BME280;32542;52.832;13.816;2023-05-25T06:47:36;102305.22;;;21.88;45.29
17254;BME280;32542;52.832;13.816;2023-05-25T06:50:39;102303.38;;;21.89;45.21
17254;BME280;32542;52.832;13.816;2023-05-25T06:53:42;102308.72;;;21.89;45.16
17254;BME280;32542;52.832;13.816;2023-05-25T06:56:45;102309.59;;;21.89;45.27
17254;BME280;32542;52.832;13.816;2023-05-25T06:59:50;102316.72;;;21.89;45.24
17254;BME280;32542;52.832;13.816;2023-05-25T07:02:53;102316.69;;;21.90;45.19
17254;BME280;32542;52.832;13.816;2023-05-25T07:05:56;102312.28;;;21.89;45.27
17254;BME280;32542;52.832;13.816;2023-05-25T07:08:58;102313.09;;;21.91;45.26
17254;BME280;32542;52.832;13.816;2023-05-25T07:12:01;102312.28;;;21.89;45.25
17254;BME280;32542;52.832;13.816;2023-05-25T07:15:10;102313.16;;;21.90;45.24
17254;BME280;32542;52.832;13.816;2023-05-25T07:18:14;102304.28;;;21.89;45.23
17254;BME280;32542;52.832;13.816;2023-05-25T07:21:17;102307.75;;;21.91;45.29
17254;BME280;32542;52.832;13.816;2023-05-25T07:24:19;102310.44;;;21.91;45.25
17254;BME280;32542;52.832;13.816;2023-05-25T07:27:22;102318.44;;;21.91;45.33
17254;BME280;32542;52.832;13.816;2023-05-25T07:30:27;102315.78;;;21.91;45.24
17254;BME280;32542;52.832;13.816;2023-05-25T07:33:30;102313.09;;;21.91;45.27
17254;BME280;32542;52.832;13.816;2023-05-25T07:36:33;102321.09;;;21.91;45.29
17254;BME280;32542;52.832;13.816;2023-05-25T07:39:36;102318.44;;;21.91;45.21
17254;BME280;32542;52.832;13.816;2023-05-25T07:42:41;102314.91;;;21.91;45.21
17254;BME280;32542;52.832;13.816;2023-05-25T07:45:45;102323.78;;;21.91;45.23
17254;BME280;32542;52.832;13.816;2023-05-25T07:48:48;102328.19;;;21.92;45.28
17254;BME280;32542;52.832;13.816;2023-05-25T07:51:51;102327.31;;;21.92;45.29
17254;BME280;32542;52.832;13.816;2023-05-25T07:54:53;102330.88;;;21.92;45.17
17254;BME280;32542;52.832;13.816;2023-05-25T07:57:56;102328.19;;;21.92;45.16
17254;BME280;32542;52.832;13.816;2023-05-25T08:01:01;102314.88;;;21.92;45.16
17254;BME280;32542;52.832;13.816;2023-05-25T08:04:04;102314.88;;;21.92;45.22
17254;BME280;32542;52.832;13.816;2023-05-25T08:07:08;102323.75;;;21.93;45.26
17254;BME280;32542;52.832;13.816;2023-05-25T08:10:11;102334.41;;;21.93;45.25
17254;BME280;32542;52.832;13.816;2023-05-25T08:13:14;102337.94;;;21.93;45.22
17254;BME280;32542;52.832;13.816;2023-05-25T08:16:18;102343.28;;;21.93;45.34
17254;BME280;32542;52.832;13.816;2023-05-25T08:19:21;102335.28;;;21.93;45.20
17254;BME280;32542;52.832;13.816;2023-05-25T08:22:24;102334.41;;;21.93;45.20
17254;BME280;32542;52.832;13.816;2023-05-25T08:25:27;102321.09;;;21.93;45.19
17254;BME280;32542;52.832;13.816;2023-05-25T08:28:30;102327.28;;;21.93;45.25
17254;BME280;32542;52.832;13.816;2023-05-25T08:31:35;102327.28;;;21.93;45.18
17254;BME280;32542;52.832;13.816;2023-05-25T08:34:38;102324.59;;;21.93;45.31
17254;BME280;32542;52.832;13.816;2023-05-25T08:37:41;102323.75;;;21.93;45.48
17254;BME280;32542;52.832;13.816;2023-05-25T08:40:44;102336.16;;;21.94;45.34
17254;BME280;32542;52.832;13.816;2023-05-25T08:43:49;102330.81;;;21.94;45.30
17254;BME280;32542;52.832;13.816;2023-05-25T08:46:55;102324.59;;;21.93;45.23
17254;BME280;32542;52.832;13.816;2023-05-25T08:49:59;102321.03;;;21.94;45.36
17254;BME280;32542;52.832;13.816;2023-05-25T08:53:07;102321.03;;;21.94;45.38
17254;BME280;32542;52.832;13.816;2023-05-25T08:56:15;102329.03;;;21.94;45.31
17254;BME280;32542;52.832;13.816;2023-05-25T08:59:27;102333.44;;;21.95;45.23
17254;BME280;32542;52.832;13.816;2023-05-25T09:02:34;102337.91;;;21.95;45.35
17254;BME280;32542;52.832;13.816;2023-05-25T09:05:40;102346.78;;;21.95;45.32
17254;BME280;32542;52.832;13.816;2023-05-25T09:08:44;102345.03;;;21.94;45.30
17254;BME280;32542;52.832;13.816;2023-05-25T09:11:48;102348.59;;;21.95;45.21
17254;BME280;32542;52.832;13.816;2023-05-25T09:14:51;102355.66;;;21.96;45.42
17254;BME280;32542;52.832;13.816;2023-05-25T09:17:56;102340.59;;;21.95;45.36
17254;BME280;32542;52.832;13.816;2023-05-25T09:21:00;102333.44;;;21.95;45.29
17254;BME280;32542;52.832;13.816;2023-05-25T09:24:04;102343.22;;;21.96;45.31
17254;BME280;32542;52.832;13.816;2023-05-25T09:27:10;102341.44;;;21.95;45.38
17254;BME280;32542;52.832;13.816;2023-05-25T09:30:13;102340.53;;;21.96;45.31
17254;BME280;32542;52.832;13.816;2023-05-25T09:33:18;102328.06;;;21.97;45.31
17254;BME280;32542;52.832;13.816;2023-05-25T09:36:22;102336.94;;;21.97;45.34
17254;BME280;32542;52.832;13.816;2023-05-25T09:39:25;102337.81;;;21.98;45.34
17254;BME280;32542;52.832;13.816;2023-05-25T09:42:28;102346.75;;;21.97;45.31
17254;BME280;32542;52.832;13.816;2023-05-25T09:45:31;102338.75;;;21.97;45.29
17254;BME280;32542;52.832;13.816;2023-05-25T09:48:40;102336.09;;;21.97;45.32
17254;BME280;32542;52.832;13.816;2023-05-25T09:51:43;102342.28;;;21.97;45.37
17254;BME280;32542;52.832;13.816;2023-05-25T09:54:47;102344.94;;;21.97;45.36
17254;BME280;32542;52.832;13.816;2023-05-25T09:57:52;102352.09;;;21.97;45.32
17254;BME280;32542;52.832;13.816;2023-05-25T10:00:55;102349.41;;;21.97;45.24
17254;BME280;32542;52.832;13.816;2023-05-25T10:04:00;102355.59;;;21.97;45.36
17254;BME280;32542;52.832;13.816;2023-05-25T10:07:06;102352.03;;;21.98;45.32
17254;BME280;32542;52.832;13.816;2023-05-25T10:10:12;102350.28;;;21.97;45.41
17254;BME280;32542;52.832;13.816;2023-05-25T10:13:20;102357.38;;;21.98;45.42
17254;BME280;32542;52.832;13.816;2023-05-25T10:16:25;102355.59;;;21.97;45.32
17254;BME280;32542;52.832;13.816;2023-05-25T10:19:35;102360.91;;;21.99;45.42
17254;BME280;32542;52.832;13.816;2023-05-25T10:22:44;102346.69;;;21.98;45.28
17254;BME280;32542;52.832;13.816;2023-05-25T10:25:53;102352.88;;;22.00;45.33
17254;BME280;32542;52.832;13.816;2023-05-25T10:28:59;102348.44;;;21.99;45.43
17254;BME280;32542;52.832;13.816;2023-05-25T10:32:05;102346.66;;;22.00;45.30
17254;BME280;32542;52.832;13.816;2023-05-25T10:35:11;102345.75;;;21.99;45.10
17254;BME280;32542;52.832;13.816;2023-05-25T10:38:15;102344.91;;;21.99;45.06
17254;BME280;32542;52.832;13.816;2023-05-25T10:41:19;102348.44;;;21.99;44.92
17254;BME280;32542;52.832;13.816;2023-05-25T10:44:22;102340.44;;;21.99;44.76
17254;BME280;32542;52.832;13.816;2023-05-25T10:47:26;102335.16;;;21.98;44.66
17254;BME280;32542;52.832;13.816;2023-05-25T10:50:34;102336.03;;;21.98;44.47
17254;BME280;32542;52.832;13.816;2023-05-25T10:53:37;102335.16;;;21.98;44.42
17254;BME280;32542;52.832;13.816;2023-05-25T10:57:07;102342.28;;;21.97;44.61
17254;BME280;32542;52.832;13.816;2023-05-25T11:00:12;102328.94;;;21.97;44.15
17254;BME280;32542;52.832;13.816;2023-05-25T11:03:15;102342.31;;;21.96;44.07
17254;BME280;32542;52.832;13.816;2023-05-25T11:10:05;102331.66;;;21.96;44.01
17254;BME280;32542;52.832;13.816;2023-05-25T11:16:41;102329.03;;;21.94;43.94
17254;BME280;32542;52.832;13.816;2023-05-25T11:19:46;102331.69;;;21.94;44.12
17254;BME280;32542;52.832;13.816;2023-05-25T11:22:53;102339.72;;;21.94;43.94
17254;BME280;32542;52.832;13.816;2023-05-25T11:26:03;102329.91;;;21.95;43.81
17254;BME280;32542;52.832;13.816;2023-05-25T11:29:11;102343.22;;;21.96;43.90
17254;BME280;32542;52.832;13.816;2023-05-25T11:32:14;102343.22;;;21.96;43.75
17254;BME280;32542;52.832;13.816;2023-05-25T11:35:18;102344.09;;;21.95;43.82
17254;BME280;32542;52.832;13.816;2023-05-25T11:38:23;102340.59;;;21.95;43.65
17254;BME280;32542;52.832;13.816;2023-05-25T11:41:26;102338.81;;;21.94;43.48
17254;BME280;32542;52.832;13.816;2023-05-25T11:44:31;102340.59;;;21.95;43.44
17254;BME280;32542;52.832;13.816;2023-05-25T11:47:34;102337.94;;;21.93;43.38
17254;BME280;32542;52.832;13.816;2023-05-25T11:50:38;102340.59;;;21.93;43.37
17254;BME280;32542;52.832;13.816;2023-05-25T11:53:44;102343.28;;;21.93;43.28
17254;BME280;32542;52.832;13.816;2023-05-25T11:56:47;102333.47;;;21.94;43.69
17254;BME280;32542;52.832;13.816;2023-05-25T11:59:51;102337.94;;;21.93;43.56
17254;BME280;32542;52.832;13.816;2023-05-25T12:02:54;102343.28;;;21.93;43.55
17254;BME280;32542;52.832;13.816;2023-05-25T12:05:58;102335.28;;;21.93;43.50
17254;BME280;32542;52.832;13.816;2023-05-25T12:09:09;102338.81;;;21.94;43.58
17254;BME280;32542;52.832;13.816;2023-05-25T12:12:13;102323.69;;;21.94;43.45
17254;BME280;32542;52.832;13.816;2023-05-25T12:15:20;102328.16;;;21.94;43.50
17254;BME280;32542;52.832;13.816;2023-05-25T12:18:23;102329.03;;;21.94;43.62
17254;BME280;32542;52.832;13.816;2023-05-25T12:21:26;102329.03;;;21.94;43.55
17254;BME280;32542;52.832;13.816;2023-05-25T12:24:31;102338.81;;;21.94;43.49
17254;BME280;32542;52.832;13.816;2023-05-25T12:27:34;102322.81;;;21.94;43.66
17254;BME280;32542;52.832;13.816;2023-05-25T12:30:37;102328.19;;;21.92;43.57
17254;BME280;32542;52.832;13.816;2023-05-25T12:33:40;102325.53;;;21.92;43.52
17254;BME280;32542;52.832;13.816;2023-05-25T12:36:47;102321.94;;;21.93;43.58
17254;BME280;32542;52.832;13.816;2023-05-25T12:39:52;102328.16;;;21.94;43.65
17254;BME280;32542;52.832;13.816;2023-05-25T12:42:56;102329.03;;;21.94;43.65
17254;BME280;32542;52.832;13.816;2023-05-25T12:45:59;102331.69;;;21.94;43.62
17254;BME280;32542;52.832;13.816;2023-05-25T12:49:02;102332.59;;;21.95;43.73
17254;BME280;32542;52.832;13.816;2023-05-25T12:52:05;102327.28;;;21.93;43.65
17254;BME280;32542;52.832;13.816;2023-05-25T12:55:20;102324.59;;;21.95;43.58
17254;BME280;32542;52.832;13.816;2023-05-25T12:58:27;102327.28;;;21.93;43.61
17254;BME280;32542;52.832;13.816;2023-05-25T13:01:30;102324.59;;;21.93;43.62
17254;BME280;32542;52.832;13.816;2023-05-25T13:04:36;102330.81;;;21.94;43.63
17254;BME280;32542;52.832;13.816;2023-05-25T13:07:39;102321.94;;;21.93;43.73
17254;BME280;32542;52.832;13.816;2023-05-25T13:10:44;102321.03;;;21.94;43.76
17254;BME280;32542;52.832;13.816;2023-05-25T13:13:49;102321.91;;;21.95;43.76
17254;BME280;32542;52.832;13.816;2023-05-25T13:16:54;102325.44;;;21.95;43.79
17254;BME280;32542;52.832;13.816;2023-05-25T13:19:58;102320.97;;;21.96;43.79
17254;BME280;32542;52.832;13.816;2023-05-25T13:23:01;102316.53;;;21.96;43.71
17254;BME280;32542;52.832;13.816;2023-05-25T13:26:07;102320.94;;;21.97;43.99
17254;BME280;32542;52.832;13.816;2023-05-25T13:29:11;102312.94;;;21.97;43.86
17254;BME280;32542;52.832;13.816;2023-05-25T13:32:14;102312.03;;;21.98;43.87
17254;BME280;32542;52.832;13.816;2023-05-25T13:35:17;102312.03;;;21.98;44.05
17254;BME280;32542;52.832;13.816;2023-05-25T13:38:35;102312.94;;;21.97;43.98
17254;BME280;32542;52.832;13.816;2023-05-25T13:41:40;102322.69;;;21.98;43.92
17254;BME280;32542;52.832;13.816;2023-05-25T13:44:44;102313.81;;;21.98;44.01
17254;BME280;32542;52.832;13.816;2023-05-25T13:47:47;102317.34;;;21.98;43.98
17254;BME280;32542;52.832;13.816;2023-05-25T13:50:50;102316.47;;;21.98;44.12
17254;BME280;32542;52.832;13.816;2023-05-25T13:53:53;102309.34;;;21.98;44.05
17254;BME280;32542;52.832;13.816;2023-05-25T13:56:57;102312.03;;;21.98;44.14
17254;BME280;32542;52.832;13.816;2023-05-25T14:00:00;102314.69;;;21.98;44.21
17254;BME280;32542;52.832;13.816;2023-05-25T14:03:07;102315.56;;;21.99;44.28
17254;BME280;32542;52.832;13.816;2023-05-25T14:06:10;102313.75;;;21.99;44.23
17254;BME280;32542;52.832;13.816;2023-05-25T14:09:13;102311.97;;;22.00;44.26
17254;BME280;32542;52.832;13.816;2023-05-25T14:12:18;102318.19;;;22.00;44.23
17254;BME280;32542;52.832;13.816;2023-05-25T14:15:20;102303.97;;;22.00;44.33
17254;BME280;32542;52.832;13.816;2023-05-25T14:18:23;102307.50;;;22.00;44.31
17254;BME280;32542;52.832;13.816;2023-05-25T14:21:26;102307.50;;;22.00;44.26
17254;BME280;32542;52.832;13.816;2023-05-25T14:24:30;102310.19;;;22.00;44.32
17254;BME280;32542;52.832;13.816;2023-05-25T14:27:34;102312.84;;;22.00;44.31
17254;BME280;32542;52.832;13.816;2023-05-25T14:30:37;102309.28;;;22.01;44.29
17254;BME280;32542;52.832;13.816;2023-05-25T14:33:40;102308.41;;;22.01;44.31
17254;BME280;32542;52.832;13.816;2023-05-25T14:36:43;102308.41;;;22.01;44.35
17254;BME280;32542;52.832;13.816;2023-05-25T14:39:46;102298.59;;;22.01;44.39
17254;BME280;32542;52.832;13.816;2023-05-25T14:42:50;102305.69;;;22.02;44.43
17254;BME280;32542;52.832;13.816;2023-05-25T14:45:56;102299.47;;;22.02;44.38
17254;BME280;32542;52.832;13.816;2023-05-25T14:48:59;102301.22;;;22.03;44.40
17254;BME280;32542;52.832;13.816;2023-05-25T14:52:02;102304.78;;;22.03;44.40
17254;BME280;32542;52.832;13.816;2023-05-25T14:55:05;102308.34;;;22.02;44.52
17254;BME280;32542;52.832;13.816;2023-05-25T14:58:11;102307.44;;;22.03;44.50
17254;BME280;32542;52.832;13.816;2023-05-25T15:01:13;102307.44;;;22.03;44.48
17254;BME280;32542;52.832;13.816;2023-05-25T15:04:16;102299.44;;;22.03;44.54
17254;BME280;32542;52.832;13.816;2023-05-25T15:07:20;102301.22;;;22.03;44.58
17254;BME280;32542;52.832;13.816;2023-05-25T15:10:23;102287.88;;;22.03;44.49
17254;BME280;32542;52.832;13.816;2023-05-25T15:13:27;102297.63;;;22.04;44.56
17254;BME280;32542;52.832;13.816;2023-05-25T15:16:30;102297.63;;;22.04;44.60
17254;BME280;32542;52.832;13.816;2023-05-25T15:19:33;102294.94;;;22.05;44.60
17254;BME280;32542;52.832;13.816;2023-05-25T15:22:36;102297.59;;;22.05;44.45
17254;BME280;32542;52.832;13.816;2023-05-25T15:25:39;102296.66;;;22.06;44.63
17254;BME280;32542;52.832;13.816;2023-05-25T15:28:43;102286.94;;;22.05;44.59
17254;BME280;32542;52.832;13.816;2023-05-25T15:31:49;102292.16;;;22.08;44.71
17254;BME280;32542;52.832;13.816;2023-05-25T15:34:52;102289.50;;;22.08;44.69
17254;BME280;32542;52.832;13.816;2023-05-25T15:37:55;102289.50;;;22.08;44.68
17254;BME280;32542;52.832;13.816;2023-05-25T15:40:58;102287.72;;;22.09;44.71
17254;BME280;32542;52.832;13.816;2023-05-25T15:44:02;102291.25;;;22.09;44.73
17254;BME280;32542;52.832;13.816;2023-05-25T15:47:08;102294.75;;;22.11;44.63
17254;BME280;32542;52.832;13.816;2023-05-25T15:50:11;102294.75;;;22.11;44.79
17254;BME280;32542;52.832;13.816;2023-05-25T15:53:14;102281.44;;;22.10;44.81
17254;BME280;32542;52.832;13.816;2023-05-25T15:56:17;102292.97;;;22.12;44.91
17254;BME280;32542;52.832;13.816;2023-05-25T15:59:22;102294.69;;;22.13;45.06